Airport Name : Wakkanai

Other Name : Wakkanai

ICAO : RJCW

IATA : WKJ

FAA :

Latitude : 45.404167

Longitude : 141.800833

Country : Japan

Local Date and Time : 03 Dec 2020 19:40

 

TAF (Terminal Aerodrome Forecast)

 

METAR (METeorological Aerodrome Report)

RJCW 030900Z 29020KT 9999 -SHSN FEW030 BKN040 M02/M08 Q1011

RJCW 030800Z 28022KT 9999 FEW030 BKN045 M02/M07 Q1010

RJCW 030700Z 27019KT 9999 -SHSN FEW020 BKN030 BKN045 M02/M07 Q1011

To Charter a Jet Click here.